Terminal Aerodrome Forecast
Issued by NWS

Current Version | Previous Version | Text Only | Print | Product List | Glossary On
Versions: 1 2 3 4 5 6 7 8 9 10 11 12 13 14
000
FTUS45 KGJT 261127
TAFDRO
TAF
KDRO 261127Z 2612/2712 01003KT P6SM VCSH FEW060 BKN100
     FM261500 26006KT P6SM FEW100 BKN150
     FM262000 33008KT P6SM VCTS SCT100CB BKN150
     FM270100 01006KT P6SM SCT120 BKN250
     FM270800 36005KT P6SM SCT250=

USA.gov is the U.S. government's official web portal to all federal, state and local government web resources and services.